sensor_id;sensor_type;location;lat;lon;timestamp;P1;durP1;ratioP1;P2;durP2;ratioP2
18623;SDS011;9441;51.420;7.036;2023-05-10T00:00:07;17.13;;;7.87;;
18623;SDS011;9441;51.420;7.036;2023-05-10T00:01:16;14.27;;;8.67;;
18623;SDS011;9441;51.420;7.036;2023-05-10T00:02:18;15.40;;;7.63;;
18623;SDS011;9441;51.420;7.036;2023-05-10T00:03:20;16.70;;;8.17;;
18623;SDS011;9441;51.420;7.036;2023-05-10T00:04:22;16.80;;;8.17;;
18623;SDS011;9441;51.420;7.036;2023-05-10T00:05:27;15.57;;;8.77;;
18623;SDS011;9441;51.420;7.036;2023-05-10T00:06:29;17.93;;;8.80;;
18623;SDS011;9441;51.420;7.036;2023-05-10T00:07:33;17.30;;;8.90;;
18623;SDS011;9441;51.420;7.036;2023-05-10T00:08:35;16.33;;;8.50;;
18623;SDS011;9441;51.420;7.036;2023-05-10T00:09:36;18.40;;;9.60;;
18623;SDS011;9441;51.420;7.036;2023-05-10T00:10:38;22.63;;;9.90;;
18623;SDS011;9441;51.420;7.036;2023-05-10T00:11:41;19.03;;;9.67;;
18623;SDS011;9441;51.420;7.036;2023-05-10T00:12:43;21.93;;;9.93;;
18623;SDS011;9441;51.420;7.036;2023-05-10T00:13:44;20.13;;;9.77;;
18623;SDS011;9441;51.420;7.036;2023-05-10T00:14:47;21.20;;;10.00;;
18623;SDS011;9441;51.420;7.036;2023-05-10T00:15:49;19.13;;;9.80;;
18623;SDS011;9441;51.420;7.036;2023-05-10T00:16:51;20.77;;;10.10;;
18623;SDS011;9441;51.420;7.036;2023-05-10T00:17:52;19.50;;;9.90;;
18623;SDS011;9441;51.420;7.036;2023-05-10T00:18:55;19.57;;;9.97;;
18623;SDS011;9441;51.420;7.036;2023-05-10T00:19:56;20.93;;;10.57;;
18623;SDS011;9441;51.420;7.036;2023-05-10T00:20:59;20.67;;;9.87;;
18623;SDS011;9441;51.420;7.036;2023-05-10T00:22:00;23.63;;;10.33;;
18623;SDS011;9441;51.420;7.036;2023-05-10T00:23:04;21.97;;;10.30;;
18623;SDS011;9441;51.420;7.036;2023-05-10T00:24:06;21.80;;;10.40;;
18623;SDS011;9441;51.420;7.036;2023-05-10T00:25:08;22.77;;;10.40;;
18623;SDS011;9441;51.420;7.036;2023-05-10T00:26:10;25.90;;;10.93;;
18623;SDS011;9441;51.420;7.036;2023-05-10T00:27:13;27.97;;;10.70;;
18623;SDS011;9441;51.420;7.036;2023-05-10T00:28:15;23.10;;;10.67;;
18623;SDS011;9441;51.420;7.036;2023-05-10T00:29:17;22.27;;;10.53;;
18623;SDS011;9441;51.420;7.036;2023-05-10T00:30:19;23.17;;;10.60;;
18623;SDS011;9441;51.420;7.036;2023-05-10T00:31:22;22.77;;;10.50;;
18623;SDS011;9441;51.420;7.036;2023-05-10T00:32:24;22.33;;;11.13;;
18623;SDS011;9441;51.420;7.036;2023-05-10T00:33:26;26.63;;;11.43;;
18623;SDS011;9441;51.420;7.036;2023-05-10T00:34:28;27.17;;;12.00;;
18623;SDS011;9441;51.420;7.036;2023-05-10T00:35:30;26.97;;;11.57;;
18623;SDS011;9441;51.420;7.036;2023-05-10T00:36:32;22.57;;;11.43;;
18623;SDS011;9441;51.420;7.036;2023-05-10T00:37:34;27.80;;;11.40;;
18623;SDS011;9441;51.420;7.036;2023-05-10T00:38:37;26.33;;;11.63;;
18623;SDS011;9441;51.420;7.036;2023-05-10T00:39:39;24.17;;;11.23;;
18623;SDS011;9441;51.420;7.036;2023-05-10T00:40:40;26.93;;;11.60;;
18623;SDS011;9441;51.420;7.036;2023-05-10T00:41:49;25.33;;;11.50;;
18623;SDS011;9441;51.420;7.036;2023-05-10T00:42:51;24.53;;;11.40;;
18623;SDS011;9441;51.420;7.036;2023-05-10T00:43:55;25.30;;;11.73;;
18623;SDS011;9441;51.420;7.036;2023-05-10T00:44:58;25.03;;;10.87;;
18623;SDS011;9441;51.420;7.036;2023-05-10T00:46:01;23.17;;;11.10;;
18623;SDS011;9441;51.420;7.036;2023-05-10T00:47:03;22.87;;;11.00;;
18623;SDS011;9441;51.420;7.036;2023-05-10T00:48:05;25.97;;;11.60;;
18623;SDS011;9441;51.420;7.036;2023-05-10T00:49:06;22.70;;;11.10;;
18623;SDS011;9441;51.420;7.036;2023-05-10T00:50:09;25.00;;;11.17;;
18623;SDS011;9441;51.420;7.036;2023-05-10T00:51:10;25.47;;;11.20;;
18623;SDS011;9441;51.420;7.036;2023-05-10T00:52:13;23.30;;;10.43;;
18623;SDS011;9441;51.420;7.036;2023-05-10T00:53:15;25.60;;;11.23;;
18623;SDS011;9441;51.420;7.036;2023-05-10T00:54:19;23.13;;;10.97;;
18623;SDS011;9441;51.420;7.036;2023-05-10T00:55:21;22.60;;;11.13;;
18623;SDS011;9441;51.420;7.036;2023-05-10T00:56:23;24.43;;;11.97;;
18623;SDS011;9441;51.420;7.036;2023-05-10T00:57:25;23.77;;;11.70;;
18623;SDS011;9441;51.420;7.036;2023-05-10T00:58:27;25.17;;;11.43;;
18623;SDS011;9441;51.420;7.036;2023-05-10T00:59:29;25.57;;;12.30;;
18623;SDS011;9441;51.420;7.036;2023-05-10T01:00:32;21.47;;;11.80;;
18623;SDS011;9441;51.420;7.036;2023-05-10T01:01:36;23.47;;;12.73;;
18623;SDS011;9441;51.420;7.036;2023-05-10T01:02:39;25.30;;;12.67;;
18623;SDS011;9441;51.420;7.036;2023-05-10T01:03:41;26.67;;;14.33;;
18623;SDS011;9441;51.420;7.036;2023-05-10T01:04:44;23.17;;;12.50;;
18623;SDS011;9441;51.420;7.036;2023-05-10T01:05:45;23.70;;;12.77;;
18623;SDS011;9441;51.420;7.036;2023-05-10T01:06:47;27.03;;;13.70;;
18623;SDS011;9441;51.420;7.036;2023-05-10T01:07:48;27.50;;;13.93;;
18623;SDS011;9441;51.420;7.036;2023-05-10T01:08:51;27.10;;;14.37;;
18623;SDS011;9441;51.420;7.036;2023-05-10T01:09:53;34.37;;;15.43;;
18623;SDS011;9441;51.420;7.036;2023-05-10T01:10:56;29.07;;;15.73;;
18623;SDS011;9441;51.420;7.036;2023-05-10T01:11:58;35.60;;;16.60;;
18623;SDS011;9441;51.420;7.036;2023-05-10T01:13:01;36.70;;;17.00;;
18623;SDS011;9441;51.420;7.036;2023-05-10T01:14:03;38.17;;;17.30;;
18623;SDS011;9441;51.420;7.036;2023-05-10T01:15:06;38.43;;;17.20;;
18623;SDS011;9441;51.420;7.036;2023-05-10T01:16:07;42.30;;;19.27;;
18623;SDS011;9441;51.420;7.036;2023-05-10T01:17:10;41.80;;;19.13;;
18623;SDS011;9441;51.420;7.036;2023-05-10T01:18:11;39.43;;;18.37;;
18623;SDS011;9441;51.420;7.036;2023-05-10T01:19:16;38.73;;;18.10;;
18623;SDS011;9441;51.420;7.036;2023-05-10T01:20:18;41.50;;;18.43;;
18623;SDS011;9441;51.420;7.036;2023-05-10T01:21:23;39.77;;;18.40;;
18623;SDS011;9441;51.420;7.036;2023-05-10T01:22:30;45.73;;;19.63;;
18623;SDS011;9441;51.420;7.036;2023-05-10T01:23:41;46.00;;;18.43;;
18623;SDS011;9441;51.420;7.036;2023-05-10T01:24:51;44.20;;;17.70;;
18623;SDS011;9441;51.420;7.036;2023-05-10T01:26:16;42.00;;;17.17;;
18623;SDS011;9441;51.420;7.036;2023-05-10T01:27:25;41.13;;;16.87;;
18623;SDS011;9441;51.420;7.036;2023-05-10T01:28:51;40.67;;;16.83;;
18623;SDS011;9441;51.420;7.036;2023-05-10T01:31:18;44.73;;;17.73;;
18623;SDS011;9441;51.420;7.036;2023-05-10T01:32:23;44.43;;;18.13;;
18623;SDS011;9441;51.420;7.036;2023-05-10T01:33:29;50.43;;;17.77;;
18623;SDS011;9441;51.420;7.036;2023-05-10T01:34:34;41.50;;;17.47;;
18623;SDS011;9441;51.420;7.036;2023-05-10T01:35:37;40.77;;;18.20;;
18623;SDS011;9441;51.420;7.036;2023-05-10T01:36:43;45.27;;;18.07;;
18623;SDS011;9441;51.420;7.036;2023-05-10T01:37:49;44.37;;;18.23;;
18623;SDS011;9441;51.420;7.036;2023-05-10T01:38:53;44.30;;;17.73;;
18623;SDS011;9441;51.420;7.036;2023-05-10T01:39:59;52.37;;;18.63;;
18623;SDS011;9441;51.420;7.036;2023-05-10T01:41:03;48.63;;;19.10;;
18623;SDS011;9441;51.420;7.036;2023-05-10T01:42:10;48.60;;;18.50;;
18623;SDS011;9441;51.420;7.036;2023-05-10T01:43:14;49.77;;;19.07;;
18623;SDS011;9441;51.420;7.036;2023-05-10T01:44:20;44.00;;;18.43;;
18623;SDS011;9441;51.420;7.036;2023-05-10T01:45:27;50.83;;;19.20;;
18623;SDS011;9441;51.420;7.036;2023-05-10T01:46:32;47.70;;;18.17;;
18623;SDS011;9441;51.420;7.036;2023-05-10T01:47:37;45.83;;;18.97;;
18623;SDS011;9441;51.420;7.036;2023-05-10T01:48:41;45.90;;;18.63;;
18623;SDS011;9441;51.420;7.036;2023-05-10T01:49:49;46.53;;;18.93;;
18623;SDS011;9441;51.420;7.036;2023-05-10T01:50:52;52.43;;;20.23;;
18623;SDS011;9441;51.420;7.036;2023-05-10T01:51:55;53.77;;;19.03;;
18623;SDS011;9441;51.420;7.036;2023-05-10T01:53:01;52.63;;;21.00;;
18623;SDS011;9441;51.420;7.036;2023-05-10T01:54:03;46.03;;;19.10;;
18623;SDS011;9441;51.420;7.036;2023-05-10T01:55:06;51.07;;;19.87;;
18623;SDS011;9441;51.420;7.036;2023-05-10T01:56:09;43.60;;;19.27;;
18623;SDS011;9441;51.420;7.036;2023-05-10T01:57:13;43.47;;;17.47;;
18623;SDS011;9441;51.420;7.036;2023-05-10T01:58:17;40.17;;;16.93;;
18623;SDS011;9441;51.420;7.036;2023-05-10T01:59:20;37.60;;;17.50;;
18623;SDS011;9441;51.420;7.036;2023-05-10T02:00:22;39.50;;;17.17;;
18623;SDS011;9441;51.420;7.036;2023-05-10T02:01:25;40.30;;;16.63;;
18623;SDS011;9441;51.420;7.036;2023-05-10T02:02:27;38.27;;;16.77;;
18623;SDS011;9441;51.420;7.036;2023-05-10T02:03:32;34.87;;;15.70;;
18623;SDS011;9441;51.420;7.036;2023-05-10T02:04:36;39.47;;;15.50;;
18623;SDS011;9441;51.420;7.036;2023-05-10T02:05:39;40.10;;;16.83;;
18623;SDS011;9441;51.420;7.036;2023-05-10T02:06:42;42.33;;;17.07;;
18623;SDS011;9441;51.420;7.036;2023-05-10T02:07:45;43.10;;;17.20;;
18623;SDS011;9441;51.420;7.036;2023-05-10T02:08:47;41.77;;;16.83;;
18623;SDS011;9441;51.420;7.036;2023-05-10T02:09:57;50.17;;;17.60;;
18623;SDS011;9441;51.420;7.036;2023-05-10T02:11:00;40.03;;;15.93;;
18623;SDS011;9441;51.420;7.036;2023-05-10T02:12:03;39.90;;;17.53;;
18623;SDS011;9441;51.420;7.036;2023-05-10T02:13:06;39.87;;;18.00;;
18623;SDS011;9441;51.420;7.036;2023-05-10T02:14:09;42.13;;;17.83;;
18623;SDS011;9441;51.420;7.036;2023-05-10T02:15:12;39.97;;;17.10;;
18623;SDS011;9441;51.420;7.036;2023-05-10T02:16:18;46.13;;;19.27;;
18623;SDS011;9441;51.420;7.036;2023-05-10T02:17:23;39.73;;;17.87;;
18623;SDS011;9441;51.420;7.036;2023-05-10T02:18:27;42.73;;;18.30;;
18623;SDS011;9441;51.420;7.036;2023-05-10T02:19:30;44.37;;;18.07;;
18623;SDS011;9441;51.420;7.036;2023-05-10T02:20:34;43.93;;;19.10;;
18623;SDS011;9441;51.420;7.036;2023-05-10T02:21:36;46.03;;;19.60;;
18623;SDS011;9441;51.420;7.036;2023-05-10T02:22:40;49.73;;;19.70;;
18623;SDS011;9441;51.420;7.036;2023-05-10T02:23:42;45.20;;;18.77;;
18623;SDS011;9441;51.420;7.036;2023-05-10T02:24:45;42.17;;;18.77;;
18623;SDS011;9441;51.420;7.036;2023-05-10T02:25:47;40.50;;;19.03;;
18623;SDS011;9441;51.420;7.036;2023-05-10T02:26:50;41.97;;;18.80;;
18623;SDS011;9441;51.420;7.036;2023-05-10T02:27:52;41.13;;;18.60;;
18623;SDS011;9441;51.420;7.036;2023-05-10T02:28:55;42.97;;;18.17;;
18623;SDS011;9441;51.420;7.036;2023-05-10T02:29:58;43.80;;;18.47;;
18623;SDS011;9441;51.420;7.036;2023-05-10T02:31:00;43.60;;;18.63;;
18623;SDS011;9441;51.420;7.036;2023-05-10T02:32:02;42.17;;;18.80;;
18623;SDS011;9441;51.420;7.036;2023-05-10T02:33:05;40.70;;;18.03;;
18623;SDS011;9441;51.420;7.036;2023-05-10T02:34:06;43.60;;;18.80;;
18623;SDS011;9441;51.420;7.036;2023-05-10T02:35:10;45.33;;;18.40;;
18623;SDS011;9441;51.420;7.036;2023-05-10T02:36:12;40.70;;;18.07;;
18623;SDS011;9441;51.420;7.036;2023-05-10T02:37:14;42.00;;;18.60;;
18623;SDS011;9441;51.420;7.036;2023-05-10T02:38:16;38.17;;;18.03;;
18623;SDS011;9441;51.420;7.036;2023-05-10T02:39:20;46.60;;;18.63;;
18623;SDS011;9441;51.420;7.036;2023-05-10T02:40:22;41.03;;;19.00;;
18623;SDS011;9441;51.420;7.036;2023-05-10T02:41:24;45.93;;;18.70;;
18623;SDS011;9441;51.420;7.036;2023-05-10T02:42:27;37.87;;;18.33;;
18623;SDS011;9441;51.420;7.036;2023-05-10T02:43:30;37.63;;;17.47;;
18623;SDS011;9441;51.420;7.036;2023-05-10T02:44:31;44.40;;;18.33;;
18623;SDS011;9441;51.420;7.036;2023-05-10T02:45:35;45.50;;;18.20;;
18623;SDS011;9441;51.420;7.036;2023-05-10T02:46:39;42.57;;;19.10;;
18623;SDS011;9441;51.420;7.036;2023-05-10T02:47:41;41.20;;;18.57;;
18623;SDS011;9441;51.420;7.036;2023-05-10T02:48:43;45.17;;;17.80;;
18623;SDS011;9441;51.420;7.036;2023-05-10T02:49:46;37.47;;;17.57;;
18623;SDS011;9441;51.420;7.036;2023-05-10T02:50:50;42.60;;;17.50;;
18623;SDS011;9441;51.420;7.036;2023-05-10T02:51:55;37.70;;;16.93;;
18623;SDS011;9441;51.420;7.036;2023-05-10T02:52:59;37.80;;;17.13;;
18623;SDS011;9441;51.420;7.036;2023-05-10T02:54:06;39.13;;;18.07;;
18623;SDS011;9441;51.420;7.036;2023-05-10T02:55:09;40.57;;;17.23;;
18623;SDS011;9441;51.420;7.036;2023-05-10T02:56:12;42.90;;;18.07;;
18623;SDS011;9441;51.420;7.036;2023-05-10T02:57:15;45.30;;;18.57;;
18623;SDS011;9441;51.420;7.036;2023-05-10T02:58:19;43.67;;;17.37;;
18623;SDS011;9441;51.420;7.036;2023-05-10T02:59:21;40.50;;;17.57;;
18623;SDS011;9441;51.420;7.036;2023-05-10T03:00:24;46.40;;;18.57;;
18623;SDS011;9441;51.420;7.036;2023-05-10T03:01:25;49.30;;;17.70;;
18623;SDS011;9441;51.420;7.036;2023-05-10T03:02:27;48.87;;;18.07;;
18623;SDS011;9441;51.420;7.036;2023-05-10T03:03:30;42.47;;;17.27;;
18623;SDS011;9441;51.420;7.036;2023-05-10T03:04:33;42.63;;;16.43;;
18623;SDS011;9441;51.420;7.036;2023-05-10T03:05:34;40.27;;;16.77;;
18623;SDS011;9441;51.420;7.036;2023-05-10T03:06:39;40.33;;;17.93;;
18623;SDS011;9441;51.420;7.036;2023-05-10T03:07:40;46.10;;;18.40;;
18623;SDS011;9441;51.420;7.036;2023-05-10T03:08:43;48.20;;;18.03;;
18623;SDS011;9441;51.420;7.036;2023-05-10T03:09:46;36.37;;;18.00;;
18623;SDS011;9441;51.420;7.036;2023-05-10T03:10:51;48.73;;;18.07;;
18623;SDS011;9441;51.420;7.036;2023-05-10T03:11:56;48.73;;;18.30;;
18623;SDS011;9441;51.420;7.036;2023-05-10T03:13:04;42.37;;;18.20;;
18623;SDS011;9441;51.420;7.036;2023-05-10T03:14:10;42.63;;;18.77;;
18623;SDS011;9441;51.420;7.036;2023-05-10T03:15:17;49.40;;;18.23;;
18623;SDS011;9441;51.420;7.036;2023-05-10T03:16:24;43.07;;;18.47;;
18623;SDS011;9441;51.420;7.036;2023-05-10T03:17:29;39.67;;;18.17;;
18623;SDS011;9441;51.420;7.036;2023-05-10T03:18:33;47.17;;;19.33;;
18623;SDS011;9441;51.420;7.036;2023-05-10T03:19:40;44.00;;;18.50;;
18623;SDS011;9441;51.420;7.036;2023-05-10T03:20:46;49.90;;;19.47;;
18623;SDS011;9441;51.420;7.036;2023-05-10T03:21:52;39.40;;;17.37;;
18623;SDS011;9441;51.420;7.036;2023-05-10T03:22:55;41.33;;;17.87;;
18623;SDS011;9441;51.420;7.036;2023-05-10T03:23:59;46.30;;;17.50;;
18623;SDS011;9441;51.420;7.036;2023-05-10T03:25:01;40.20;;;17.27;;
18623;SDS011;9441;51.420;7.036;2023-05-10T03:26:07;45.80;;;18.00;;
18623;SDS011;9441;51.420;7.036;2023-05-10T03:27:08;40.53;;;17.47;;
18623;SDS011;9441;51.420;7.036;2023-05-10T03:28:11;43.73;;;18.40;;
18623;SDS011;9441;51.420;7.036;2023-05-10T03:29:13;43.73;;;18.33;;
18623;SDS011;9441;51.420;7.036;2023-05-10T03:30:16;45.13;;;18.60;;
18623;SDS011;9441;51.420;7.036;2023-05-10T03:31:18;47.40;;;17.23;;
18623;SDS011;9441;51.420;7.036;2023-05-10T03:32:20;44.93;;;17.30;;
18623;SDS011;9441;51.420;7.036;2023-05-10T03:33:22;42.37;;;16.70;;
18623;SDS011;9441;51.420;7.036;2023-05-10T03:34:24;38.23;;;17.50;;
18623;SDS011;9441;51.420;7.036;2023-05-10T03:35:26;36.93;;;16.70;;
18623;SDS011;9441;51.420;7.036;2023-05-10T03:36:28;43.37;;;17.47;;
18623;SDS011;9441;51.420;7.036;2023-05-10T03:37:33;41.80;;;17.53;;
18623;SDS011;9441;51.420;7.036;2023-05-10T03:38:34;45.53;;;18.00;;
18623;SDS011;9441;51.420;7.036;2023-05-10T03:39:36;48.20;;;18.73;;
18623;SDS011;9441;51.420;7.036;2023-05-10T03:40:42;45.53;;;17.80;;
18623;SDS011;9441;51.420;7.036;2023-05-10T03:41:44;49.67;;;18.07;;
18623;SDS011;9441;51.420;7.036;2023-05-10T03:42:45;40.47;;;17.47;;
18623;SDS011;9441;51.420;7.036;2023-05-10T03:43:48;49.93;;;18.80;;
18623;SDS011;9441;51.420;7.036;2023-05-10T03:44:49;45.43;;;18.00;;
18623;SDS011;9441;51.420;7.036;2023-05-10T03:45:51;50.67;;;17.90;;
18623;SDS011;9441;51.420;7.036;2023-05-10T03:46:53;45.27;;;18.10;;
18623;SDS011;9441;51.420;7.036;2023-05-10T03:47:56;47.97;;;18.43;;
18623;SDS011;9441;51.420;7.036;2023-05-10T03:48:58;46.20;;;18.20;;
18623;SDS011;9441;51.420;7.036;2023-05-10T03:50:00;47.30;;;18.20;;
18623;SDS011;9441;51.420;7.036;2023-05-10T03:51:03;52.63;;;18.23;;
18623;SDS011;9441;51.420;7.036;2023-05-10T03:52:04;46.03;;;18.90;;
18623;SDS011;9441;51.420;7.036;2023-05-10T03:53:08;49.33;;;19.30;;
18623;SDS011;9441;51.420;7.036;2023-05-10T03:54:09;52.00;;;19.23;;
18623;SDS011;9441;51.420;7.036;2023-05-10T03:55:12;47.30;;;18.53;;
18623;SDS011;9441;51.420;7.036;2023-05-10T03:56:13;54.87;;;20.13;;
18623;SDS011;9441;51.420;7.036;2023-05-10T03:57:15;49.30;;;19.67;;
18623;SDS011;9441;51.420;7.036;2023-05-10T03:58:16;53.77;;;20.10;;
18623;SDS011;9441;51.420;7.036;2023-05-10T03:59:19;57.60;;;21.40;;
18623;SDS011;9441;51.420;7.036;2023-05-10T04:00:20;60.90;;;20.13;;
18623;SDS011;9441;51.420;7.036;2023-05-10T04:01:26;53.33;;;20.07;;
18623;SDS011;9441;51.420;7.036;2023-05-10T04:02:27;50.23;;;19.30;;
18623;SDS011;9441;51.420;7.036;2023-05-10T04:03:30;60.60;;;20.90;;
18623;SDS011;9441;51.420;7.036;2023-05-10T04:04:31;54.57;;;20.80;;
18623;SDS011;9441;51.420;7.036;2023-05-10T04:05:34;65.10;;;21.87;;
18623;SDS011;9441;51.420;7.036;2023-05-10T04:06:35;65.27;;;21.57;;
18623;SDS011;9441;51.420;7.036;2023-05-10T04:07:38;57.63;;;20.90;;
18623;SDS011;9441;51.420;7.036;2023-05-10T04:08:40;58.97;;;21.43;;
18623;SDS011;9441;51.420;7.036;2023-05-10T04:09:43;62.97;;;22.43;;
18623;SDS011;9441;51.420;7.036;2023-05-10T04:10:44;58.27;;;21.70;;
18623;SDS011;9441;51.420;7.036;2023-05-10T04:11:46;60.63;;;22.60;;
18623;SDS011;9441;51.420;7.036;2023-05-10T04:12:48;65.93;;;22.20;;
18623;SDS011;9441;51.420;7.036;2023-05-10T04:13:50;67.00;;;21.97;;
18623;SDS011;9441;51.420;7.036;2023-05-10T04:14:51;58.03;;;21.53;;
18623;SDS011;9441;51.420;7.036;2023-05-10T04:15:54;62.17;;;21.77;;
18623;SDS011;9441;51.420;7.036;2023-05-10T04:16:55;64.87;;;23.17;;
18623;SDS011;9441;51.420;7.036;2023-05-10T04:17:57;65.83;;;22.43;;
18623;SDS011;9441;51.420;7.036;2023-05-10T04:18:59;66.07;;;23.20;;
18623;SDS011;9441;51.420;7.036;2023-05-10T04:20:01;67.93;;;23.90;;
18623;SDS011;9441;51.420;7.036;2023-05-10T04:21:03;73.03;;;24.40;;
18623;SDS011;9441;51.420;7.036;2023-05-10T04:22:06;69.57;;;24.00;;
18623;SDS011;9441;51.420;7.036;2023-05-10T04:23:07;66.50;;;23.17;;
18623;SDS011;9441;51.420;7.036;2023-05-10T04:24:11;78.63;;;25.57;;
18623;SDS011;9441;51.420;7.036;2023-05-10T04:25:12;71.83;;;25.17;;
18623;SDS011;9441;51.420;7.036;2023-05-10T04:26:15;77.00;;;25.80;;
18623;SDS011;9441;51.420;7.036;2023-05-10T04:27:16;75.17;;;23.57;;
18623;SDS011;9441;51.420;7.036;2023-05-10T04:28:18;78.37;;;25.73;;
18623;SDS011;9441;51.420;7.036;2023-05-10T04:29:20;72.93;;;26.03;;
18623;SDS011;9441;51.420;7.036;2023-05-10T04:30:22;81.10;;;27.10;;
18623;SDS011;9441;51.420;7.036;2023-05-10T04:31:24;76.47;;;25.90;;
18623;SDS011;9441;51.420;7.036;2023-05-10T04:32:26;75.30;;;25.90;;
18623;SDS011;9441;51.420;7.036;2023-05-10T04:33:28;74.23;;;25.60;;
18623;SDS011;9441;51.420;7.036;2023-05-10T04:34:30;77.97;;;26.27;;
18623;SDS011;9441;51.420;7.036;2023-05-10T04:35:34;77.23;;;25.43;;
18623;SDS011;9441;51.420;7.036;2023-05-10T04:36:37;81.17;;;25.57;;
18623;SDS011;9441;51.420;7.036;2023-05-10T04:37:38;71.60;;;25.37;;
18623;SDS011;9441;51.420;7.036;2023-05-10T04:38:40;84.30;;;26.43;;
18623;SDS011;9441;51.420;7.036;2023-05-10T04:39:44;71.27;;;25.30;;
18623;SDS011;9441;51.420;7.036;2023-05-10T04:40:46;74.67;;;24.53;;
18623;SDS011;9441;51.420;7.036;2023-05-10T04:41:47;76.43;;;24.97;;
18623;SDS011;9441;51.420;7.036;2023-05-10T04:42:50;90.53;;;26.07;;
18623;SDS011;9441;51.420;7.036;2023-05-10T04:43:51;76.43;;;25.73;;
18623;SDS011;9441;51.420;7.036;2023-05-10T04:44:54;88.60;;;26.30;;
18623;SDS011;9441;51.420;7.036;2023-05-10T04:45:55;77.57;;;25.83;;
18623;SDS011;9441;51.420;7.036;2023-05-10T04:46:58;89.27;;;26.77;;
18623;SDS011;9441;51.420;7.036;2023-05-10T04:47:59;89.17;;;26.53;;
18623;SDS011;9441;51.420;7.036;2023-05-10T04:49:02;87.63;;;26.93;;
18623;SDS011;9441;51.420;7.036;2023-05-10T04:50:03;94.93;;;28.63;;
18623;SDS011;9441;51.420;7.036;2023-05-10T04:51:06;88.97;;;26.57;;
18623;SDS011;9441;51.420;7.036;2023-05-10T04:52:07;85.70;;;27.80;;
18623;SDS011;9441;51.420;7.036;2023-05-10T04:53:09;82.63;;;27.93;;
18623;SDS011;9441;51.420;7.036;2023-05-10T04:54:10;85.47;;;27.60;;
18623;SDS011;9441;51.420;7.036;2023-05-10T04:55:14;85.80;;;28.37;;
18623;SDS011;9441;51.420;7.036;2023-05-10T04:56:16;88.47;;;29.13;;
18623;SDS011;9441;51.420;7.036;2023-05-10T04:57:18;88.07;;;30.07;;
18623;SDS011;9441;51.420;7.036;2023-05-10T04:58:19;93.00;;;29.17;;
18623;SDS011;9441;51.420;7.036;2023-05-10T04:59:22;88.67;;;27.47;;
18623;SDS011;9441;51.420;7.036;2023-05-10T05:00:23;87.43;;;28.77;;
18623;SDS011;9441;51.420;7.036;2023-05-10T05:01:26;96.17;;;29.03;;
18623;SDS011;9441;51.420;7.036;2023-05-10T05:02:27;86.60;;;28.53;;
18623;SDS011;9441;51.420;7.036;2023-05-10T05:03:29;103.03;;;28.87;;
18623;SDS011;9441;51.420;7.036;2023-05-10T05:04:31;106.83;;;30.10;;
18623;SDS011;9441;51.420;7.036;2023-05-10T05:05:33;88.53;;;30.20;;
18623;SDS011;9441;51.420;7.036;2023-05-10T05:06:34;97.17;;;29.87;;
18623;SDS011;9441;51.420;7.036;2023-05-10T05:07:37;88.37;;;29.53;;
18623;SDS011;9441;51.420;7.036;2023-05-10T05:08:38;87.30;;;29.80;;
18623;SDS011;9441;51.420;7.036;2023-05-10T05:09:40;88.70;;;30.63;;
18623;SDS011;9441;51.420;7.036;2023-05-10T05:10:43;89.00;;;29.40;;
18623;SDS011;9441;51.420;7.036;2023-05-10T05:11:46;99.73;;;30.73;;
18623;SDS011;9441;51.420;7.036;2023-05-10T05:12:47;104.43;;;31.37;;
18623;SDS011;9441;51.420;7.036;2023-05-10T05:13:49;97.47;;;30.20;;
18623;SDS011;9441;51.420;7.036;2023-05-10T05:14:53;93.77;;;29.47;;
18623;SDS011;9441;51.420;7.036;2023-05-10T05:15:55;94.47;;;29.87;;
18623;SDS011;9441;51.420;7.036;2023-05-10T05:16:57;107.30;;;31.80;;
18623;SDS011;9441;51.420;7.036;2023-05-10T05:17:59;100.67;;;31.50;;
18623;SDS011;9441;51.420;7.036;2023-05-10T05:19:00;109.10;;;32.07;;
18623;SDS011;9441;51.420;7.036;2023-05-10T05:20:03;103.40;;;31.47;;
18623;SDS011;9441;51.420;7.036;2023-05-10T05:21:13;100.67;;;31.53;;
18623;SDS011;9441;51.420;7.036;2023-05-10T05:22:16;101.07;;;30.90;;
18623;SDS011;9441;51.420;7.036;2023-05-10T05:23:17;98.07;;;30.73;;
18623;SDS011;9441;51.420;7.036;2023-05-10T05:24:20;103.60;;;31.87;;
18623;SDS011;9441;51.420;7.036;2023-05-10T05:25:22;103.80;;;32.53;;
18623;SDS011;9441;51.420;7.036;2023-05-10T05:26:26;99.33;;;31.83;;
18623;SDS011;9441;51.420;7.036;2023-05-10T05:27:27;101.07;;;31.60;;
18623;SDS011;9441;51.420;7.036;2023-05-10T05:28:29;104.47;;;32.80;;
18623;SDS011;9441;51.420;7.036;2023-05-10T05:29:33;98.67;;;32.50;;
18623;SDS011;9441;51.420;7.036;2023-05-10T05:30:35;104.00;;;32.90;;
18623;SDS011;9441;51.420;7.036;2023-05-10T05:31:37;100.57;;;32.00;;
18623;SDS011;9441;51.420;7.036;2023-05-10T05:32:39;106.40;;;34.50;;
18623;SDS011;9441;51.420;7.036;2023-05-10T05:33:40;99.60;;;33.90;;
18623;SDS011;9441;51.420;7.036;2023-05-10T05:34:43;103.70;;;32.83;;
18623;SDS011;9441;51.420;7.036;2023-05-10T05:35:45;107.53;;;34.30;;
18623;SDS011;9441;51.420;7.036;2023-05-10T05:36:50;104.10;;;34.43;;
18623;SDS011;9441;51.420;7.036;2023-05-10T05:37:52;106.60;;;33.60;;
18623;SDS011;9441;51.420;7.036;2023-05-10T05:38:54;90.93;;;32.60;;
18623;SDS011;9441;51.420;7.036;2023-05-10T05:39:55;107.67;;;34.07;;
18623;SDS011;9441;51.420;7.036;2023-05-10T05:40:58;100.47;;;32.83;;
18623;SDS011;9441;51.420;7.036;2023-05-10T05:42:01;97.50;;;34.20;;
18623;SDS011;9441;51.420;7.036;2023-05-10T05:43:04;108.60;;;33.93;;
18623;SDS011;9441;51.420;7.036;2023-05-10T05:44:05;100.07;;;34.87;;
18623;SDS011;9441;51.420;7.036;2023-05-10T05:45:08;99.37;;;34.60;;
18623;SDS011;9441;51.420;7.036;2023-05-10T05:46:13;98.43;;;33.40;;
18623;SDS011;9441;51.420;7.036;2023-05-10T05:47:15;102.97;;;34.07;;
18623;SDS011;9441;51.420;7.036;2023-05-10T05:48:16;100.70;;;33.30;;
18623;SDS011;9441;51.420;7.036;2023-05-10T05:49:19;96.30;;;33.20;;
18623;SDS011;9441;51.420;7.036;2023-05-10T05:50:20;97.33;;;32.33;;
18623;SDS011;9441;51.420;7.036;2023-05-10T05:51:22;95.83;;;33.37;;
18623;SDS011;9441;51.420;7.036;2023-05-10T05:52:24;100.60;;;33.20;;
18623;SDS011;9441;51.420;7.036;2023-05-10T05:53:26;87.90;;;32.27;;
18623;SDS011;9441;51.420;7.036;2023-05-10T05:54:28;100.20;;;33.90;;
18623;SDS011;9441;51.420;7.036;2023-05-10T05:55:30;97.30;;;32.93;;
18623;SDS011;9441;51.420;7.036;2023-05-10T05:56:31;98.80;;;34.13;;
18623;SDS011;9441;51.420;7.036;2023-05-10T05:57:35;97.67;;;33.30;;
18623;SDS011;9441;51.420;7.036;2023-05-10T05:58:36;107.70;;;33.70;;
18623;SDS011;9441;51.420;7.036;2023-05-10T05:59:38;94.37;;;32.10;;
18623;SDS011;9441;51.420;7.036;2023-05-10T06:00:43;88.70;;;32.80;;
18623;SDS011;9441;51.420;7.036;2023-05-10T06:01:46;100.63;;;33.93;;
18623;SDS011;9441;51.420;7.036;2023-05-10T06:02:47;102.27;;;34.70;;
18623;SDS011;9441;51.420;7.036;2023-05-10T06:03:49;98.47;;;33.97;;
18623;SDS011;9441;51.420;7.036;2023-05-10T06:04:51;95.10;;;33.40;;
18623;SDS011;9441;51.420;7.036;2023-05-10T06:05:53;105.23;;;34.10;;
18623;SDS011;9441;51.420;7.036;2023-05-10T06:06:54;102.20;;;34.97;;
18623;SDS011;9441;51.420;7.036;2023-05-10T06:07:57;101.83;;;34.20;;
18623;SDS011;9441;51.420;7.036;2023-05-10T06:09:00;95.10;;;32.97;;
18623;SDS011;9441;51.420;7.036;2023-05-10T06:10:03;103.20;;;34.30;;
18623;SDS011;9441;51.420;7.036;2023-05-10T06:11:04;93.03;;;33.70;;
18623;SDS011;9441;51.420;7.036;2023-05-10T06:12:07;98.30;;;34.67;;
18623;SDS011;9441;51.420;7.036;2023-05-10T06:13:09;95.20;;;34.70;;
18623;SDS011;9441;51.420;7.036;2023-05-10T06:14:12;97.67;;;34.47;;